EPZG

Details ICAO EPZG (IEG)
Name ZIELONA GORA BABIMOST
Region Poland
Timezone Europe/Warsaw (UTC+1.0)
Plans Departing 35
Arriving 35
Stats Elevation 193 ft / 59 m (AMSL)
Location 52.138633° 15.798400°
Runways 1
Magnetic Variation 4.427° E
Sunrise 2017-12-16 07:01:29 UTC / 2017-12-16 08:01:29 Local
Sunset 2017-12-16 14:46:07 UTC / 2017-12-16 15:46:07 Local
Advertisement - Login to hide

Runways

ID Width Length Bearing (true) Bearing (mag) Surface Threshold Offset Overrun Length
06 197 ft / 60 m 8,169 ft / 2,490 m 64.50° 60.07° Concrete 0 ft / 0 m 0 ft / 0 m
24 197 ft / 60 m 8,169 ft / 2,490 m 244.52° 240.09° Concrete 0 ft / 0 m 0 ft / 0 m

Map

Weather


0- 5 10 15 20 25 30 35+ Temperature / ° C

Clouds and Precipitation
Forecast for 2017-12-16 06:00 UTC. Updated an hour ago

Ground ~20,000 ft ~40,000 ft Winds

METAR

EPZG 160200Z 25005KT 2000 BR BKN003 00/00 Q1001

TAF

Not found

Frequencies

Tower 118.75 MHz ZIELONA GORA TOWER
Warning: Do not use this data for real-world aviation or navigation. No guarantee of current accuracy is given.